sensor_id;sensor_type;location;lat;lon;timestamp;temperature;humidity
46319;DHT22;32042;50.916;2.926;2022-12-01T12:59:18;7.70;99.90
46319;DHT22;32042;50.916;2.926;2022-12-01T13:02:00;7.60;99.90
46319;DHT22;32042;50.916;2.926;2022-12-01T13:04:44;7.60;99.90
46319;DHT22;32042;50.916;2.926;2022-12-01T13:09:43;7.50;99.90
46319;DHT22;32042;50.916;2.926;2022-12-01T13:12:30;7.50;99.90
46319;DHT22;32042;50.916;2.926;2022-12-01T13:17:41;7.50;99.90
46319;DHT22;32042;50.916;2.926;2022-12-01T13:20:19;7.50;99.90
46319;DHT22;32042;50.916;2.926;2022-12-01T13:22:46;7.50;99.90
46319;DHT22;32042;50.916;2.926;2022-12-01T13:25:17;7.50;99.90
46319;DHT22;32042;50.916;2.926;2022-12-01T13:27:44;7.50;99.90
46319;DHT22;32042;50.916;2.926;2022-12-01T13:30:20;7.40;99.90
46319;DHT22;32042;50.916;2.926;2022-12-01T13:32:47;7.40;99.90
46319;DHT22;32042;50.916;2.926;2022-12-01T13:37:45;7.30;99.90
46319;DHT22;32042;50.916;2.926;2022-12-01T13:40:30;7.20;99.90
46319;DHT22;32042;50.916;2.926;2022-12-01T13:43:05;7.20;99.90
46319;DHT22;32042;50.916;2.926;2022-12-01T13:45:34;7.20;99.90
46319;DHT22;32042;50.916;2.926;2022-12-01T13:48:01;7.20;99.90
46319;DHT22;32042;50.916;2.926;2022-12-01T13:50:37;7.30;99.90
46319;DHT22;32042;50.916;2.926;2022-12-01T13:58:47;7.40;99.90
46319;DHT22;32042;50.916;2.926;2022-12-01T14:11:58;7.60;99.90
46319;DHT22;32042;50.916;2.926;2022-12-01T14:14:27;7.60;99.90
46319;DHT22;32042;50.916;2.926;2022-12-01T14:16:58;7.60;99.90
46319;DHT22;32042;50.916;2.926;2022-12-01T14:19:48;7.50;99.90
46319;DHT22;32042;50.916;2.926;2022-12-01T14:22:32;7.50;99.90
46319;DHT22;32042;50.916;2.926;2022-12-01T14:24:59;7.40;99.90
46319;DHT22;32042;50.916;2.926;2022-12-01T14:27:33;7.40;99.90
46319;DHT22;32042;50.916;2.926;2022-12-01T14:31:19;7.30;99.90
46319;DHT22;32042;50.916;2.926;2022-12-01T14:38:43;7.20;99.90
46319;DHT22;32042;50.916;2.926;2022-12-01T14:41:19;7.20;99.90
46319;DHT22;32042;50.916;2.926;2022-12-01T14:43:48;7.10;99.90
46319;DHT22;32042;50.916;2.926;2022-12-01T14:46:43;7.10;99.90
46319;DHT22;32042;50.916;2.926;2022-12-01T14:49:42;7.10;99.90
46319;DHT22;32042;50.916;2.926;2022-12-01T14:52:36;7.00;99.90
46319;DHT22;32042;50.916;2.926;2022-12-01T14:55:21;7.00;99.90
46319;DHT22;32042;50.916;2.926;2022-12-01T14:57:50;6.90;99.90
46319;DHT22;32042;50.916;2.926;2022-12-01T15:00:21;6.90;99.90
46319;DHT22;32042;50.916;2.926;2022-12-01T15:03:00;6.90;99.90
46319;DHT22;32042;50.916;2.926;2022-12-01T15:05:29;6.80;99.90
46319;DHT22;32042;50.916;2.926;2022-12-01T15:07:58;6.70;99.90
46319;DHT22;32042;50.916;2.926;2022-12-01T15:10:26;6.70;99.90
46319;DHT22;32042;50.916;2.926;2022-12-01T15:12:53;6.70;99.90
46319;DHT22;32042;50.916;2.926;2022-12-01T15:15:22;6.60;99.90
46319;DHT22;32042;50.916;2.926;2022-12-01T15:17:48;6.60;99.90
46319;DHT22;32042;50.916;2.926;2022-12-01T15:20:44;6.60;99.90
46319;DHT22;32042;50.916;2.926;2022-12-01T15:23:14;6.50;99.90
46319;DHT22;32042;50.916;2.926;2022-12-01T15:25:42;6.50;99.90
46319;DHT22;32042;50.916;2.926;2022-12-01T15:28:13;6.40;99.90
46319;DHT22;32042;50.916;2.926;2022-12-01T15:30:40;6.30;99.90
46319;DHT22;32042;50.916;2.926;2022-12-01T15:33:20;6.40;99.90
46319;DHT22;32042;50.916;2.926;2022-12-01T15:35:47;6.30;99.90
46319;DHT22;32042;50.916;2.926;2022-12-01T15:38:20;6.20;99.90
46319;DHT22;32042;50.916;2.926;2022-12-01T15:40:47;6.10;99.90
46319;DHT22;32042;50.916;2.926;2022-12-01T15:43:22;6.10;99.90
46319;DHT22;32042;50.916;2.926;2022-12-01T15:45:54;6.00;99.90
46319;DHT22;32042;50.916;2.926;2022-12-01T15:48:33;5.80;99.90
46319;DHT22;32042;50.916;2.926;2022-12-01T15:51:23;5.80;99.90
46319;DHT22;32042;50.916;2.926;2022-12-01T15:53:53;5.80;99.90
46319;DHT22;32042;50.916;2.926;2022-12-01T15:56:31;5.80;99.90
46319;DHT22;32042;50.916;2.926;2022-12-01T15:59:28;5.60;99.90
46319;DHT22;32042;50.916;2.926;2022-12-01T16:01:55;5.60;99.90
46319;DHT22;32042;50.916;2.926;2022-12-01T16:04:27;5.60;99.90
46319;DHT22;32042;50.916;2.926;2022-12-01T16:07:07;5.40;99.90
46319;DHT22;32042;50.916;2.926;2022-12-01T16:09:36;5.40;99.90
46319;DHT22;32042;50.916;2.926;2022-12-01T16:20:31;5.30;99.90
46319;DHT22;32042;50.916;2.926;2022-12-01T16:23:09;5.20;99.90
46319;DHT22;32042;50.916;2.926;2022-12-01T16:25:41;5.10;99.90
46319;DHT22;32042;50.916;2.926;2022-12-01T16:28:23;5.00;99.90
46319;DHT22;32042;50.916;2.926;2022-12-01T16:30:49;5.10;99.90
46319;DHT22;32042;50.916;2.926;2022-12-01T16:33:21;5.00;99.90
46319;DHT22;32042;50.916;2.926;2022-12-01T16:35:47;4.90;99.90
46319;DHT22;32042;50.916;2.926;2022-12-01T16:38:22;4.80;99.90
46319;DHT22;32042;50.916;2.926;2022-12-01T16:40:50;4.80;99.90
46319;DHT22;32042;50.916;2.926;2022-12-01T16:43:18;4.70;99.90
46319;DHT22;32042;50.916;2.926;2022-12-01T16:45:44;4.60;99.90
46319;DHT22;32042;50.916;2.926;2022-12-01T16:48:11;4.50;99.90
46319;DHT22;32042;50.916;2.926;2022-12-01T16:50:37;4.40;99.90
46319;DHT22;32042;50.916;2.926;2022-12-01T16:53:03;4.30;99.90
46319;DHT22;32042;50.916;2.926;2022-12-01T16:55:36;4.30;99.90
46319;DHT22;32042;50.916;2.926;2022-12-01T16:58:02;4.20;99.90
46319;DHT22;32042;50.916;2.926;2022-12-01T17:00:28;4.20;99.90
46319;DHT22;32042;50.916;2.926;2022-12-01T17:02:54;4.10;99.90
46319;DHT22;32042;50.916;2.926;2022-12-01T17:05:20;4.10;99.90
46319;DHT22;32042;50.916;2.926;2022-12-01T17:07:46;4.00;99.90
46319;DHT22;32042;50.916;2.926;2022-12-01T17:10:12;4.00;99.90
46319;DHT22;32042;50.916;2.926;2022-12-01T17:12:37;4.00;99.90
46319;DHT22;32042;50.916;2.926;2022-12-01T17:15:04;3.90;99.90
46319;DHT22;32042;50.916;2.926;2022-12-01T17:17:29;3.90;99.90
46319;DHT22;32042;50.916;2.926;2022-12-01T17:19:55;3.90;99.90
46319;DHT22;32042;50.916;2.926;2022-12-01T17:22:21;3.90;99.90
46319;DHT22;32042;50.916;2.926;2022-12-01T17:24:46;3.90;99.90
46319;DHT22;32042;50.916;2.926;2022-12-01T17:27:12;3.80;99.90
46319;DHT22;32042;50.916;2.926;2022-12-01T17:29:38;3.80;99.90
46319;DHT22;32042;50.916;2.926;2022-12-01T17:32:04;3.70;99.90
46319;DHT22;32042;50.916;2.926;2022-12-01T17:34:32;3.70;99.90
46319;DHT22;32042;50.916;2.926;2022-12-01T17:36:58;3.60;99.90
46319;DHT22;32042;50.916;2.926;2022-12-01T17:39:24;3.60;99.90
46319;DHT22;32042;50.916;2.926;2022-12-01T17:41:49;3.60;99.90
46319;DHT22;32042;50.916;2.926;2022-12-01T17:44:15;3.60;99.90
46319;DHT22;32042;50.916;2.926;2022-12-01T17:46:40;3.50;99.90
46319;DHT22;32042;50.916;2.926;2022-12-01T17:49:06;3.50;99.90
46319;DHT22;32042;50.916;2.926;2022-12-01T17:51:36;3.40;99.90
46319;DHT22;32042;50.916;2.926;2022-12-01T17:54:03;3.40;99.90
46319;DHT22;32042;50.916;2.926;2022-12-01T17:56:29;3.30;99.90
46319;DHT22;32042;50.916;2.926;2022-12-01T17:58:54;3.30;99.90
46319;DHT22;32042;50.916;2.926;2022-12-01T18:01:20;3.20;99.90
46319;DHT22;32042;50.916;2.926;2022-12-01T18:03:47;3.20;99.90
46319;DHT22;32042;50.916;2.926;2022-12-01T18:06:13;3.20;99.90
46319;DHT22;32042;50.916;2.926;2022-12-01T18:08:39;3.10;99.90
46319;DHT22;32042;50.916;2.926;2022-12-01T18:11:07;3.10;99.90
46319;DHT22;32042;50.916;2.926;2022-12-01T18:13:46;3.00;99.90
46319;DHT22;32042;50.916;2.926;2022-12-01T18:16:24;3.00;99.90
46319;DHT22;32042;50.916;2.926;2022-12-01T18:18:51;3.00;99.90
46319;DHT22;32042;50.916;2.926;2022-12-01T18:21:18;2.90;99.90
46319;DHT22;32042;50.916;2.926;2022-12-01T18:23:49;3.00;99.90
46319;DHT22;32042;50.916;2.926;2022-12-01T18:26:15;3.00;99.90
46319;DHT22;32042;50.916;2.926;2022-12-01T18:28:41;3.00;99.90
46319;DHT22;32042;50.916;2.926;2022-12-01T18:31:10;3.00;99.90
46319;DHT22;32042;50.916;2.926;2022-12-01T18:33:37;3.00;99.90
46319;DHT22;32042;50.916;2.926;2022-12-01T18:36:04;3.00;99.90
46319;DHT22;32042;50.916;2.926;2022-12-01T18:38:33;3.00;99.90
46319;DHT22;32042;50.916;2.926;2022-12-01T18:40:59;2.90;99.90
46319;DHT22;32042;50.916;2.926;2022-12-01T18:43:27;2.90;99.90
46319;DHT22;32042;50.916;2.926;2022-12-01T18:45:53;2.90;99.90
46319;DHT22;32042;50.916;2.926;2022-12-01T18:48:20;2.80;99.90
46319;DHT22;32042;50.916;2.926;2022-12-01T18:50:46;2.80;99.90
46319;DHT22;32042;50.916;2.926;2022-12-01T18:53:11;2.80;99.90
46319;DHT22;32042;50.916;2.926;2022-12-01T18:55:37;2.80;99.90
46319;DHT22;32042;50.916;2.926;2022-12-01T18:58:03;2.70;99.90
46319;DHT22;32042;50.916;2.926;2022-12-01T19:00:29;2.70;99.90
46319;DHT22;32042;50.916;2.926;2022-12-01T19:02:55;2.70;99.90
46319;DHT22;32042;50.916;2.926;2022-12-01T19:05:22;2.60;99.90
46319;DHT22;32042;50.916;2.926;2022-12-01T19:07:48;2.60;99.90
46319;DHT22;32042;50.916;2.926;2022-12-01T19:10:14;2.60;99.90
46319;DHT22;32042;50.916;2.926;2022-12-01T19:12:39;2.60;99.90
46319;DHT22;32042;50.916;2.926;2022-12-01T19:15:06;2.60;99.90
46319;DHT22;32042;50.916;2.926;2022-12-01T19:17:34;2.50;99.90
46319;DHT22;32042;50.916;2.926;2022-12-01T19:20:00;2.50;99.90
46319;DHT22;32042;50.916;2.926;2022-12-01T19:22:25;2.40;99.90
46319;DHT22;32042;50.916;2.926;2022-12-01T19:24:51;2.40;99.90
46319;DHT22;32042;50.916;2.926;2022-12-01T19:27:17;2.40;99.90
46319;DHT22;32042;50.916;2.926;2022-12-01T19:29:43;2.30;99.90
46319;DHT22;32042;50.916;2.926;2022-12-01T19:32:09;2.30;99.90
46319;DHT22;32042;50.916;2.926;2022-12-01T19:34:34;2.30;99.90
46319;DHT22;32042;50.916;2.926;2022-12-01T19:37:00;2.30;99.90
46319;DHT22;32042;50.916;2.926;2022-12-01T19:39:26;2.30;99.90
46319;DHT22;32042;50.916;2.926;2022-12-01T19:41:51;2.20;99.90
46319;DHT22;32042;50.916;2.926;2022-12-01T19:44:17;2.20;99.90
46319;DHT22;32042;50.916;2.926;2022-12-01T19:46:43;2.20;99.90
46319;DHT22;32042;50.916;2.926;2022-12-01T19:49:10;2.20;99.90
46319;DHT22;32042;50.916;2.926;2022-12-01T19:51:37;2.20;99.90
46319;DHT22;32042;50.916;2.926;2022-12-01T19:54:06;2.20;99.90
46319;DHT22;32042;50.916;2.926;2022-12-01T19:56:32;2.20;99.90
46319;DHT22;32042;50.916;2.926;2022-12-01T19:58:58;2.20;99.90
46319;DHT22;32042;50.916;2.926;2022-12-01T20:01:25;2.20;99.90
46319;DHT22;32042;50.916;2.926;2022-12-01T20:03:52;2.20;99.90
46319;DHT22;32042;50.916;2.926;2022-12-01T20:06:20;2.30;99.90
46319;DHT22;32042;50.916;2.926;2022-12-01T20:08:47;2.30;99.90
46319;DHT22;32042;50.916;2.926;2022-12-01T20:11:13;2.30;99.90
46319;DHT22;32042;50.916;2.926;2022-12-01T20:13:42;2.30;99.90
46319;DHT22;32042;50.916;2.926;2022-12-01T20:16:11;2.40;99.90
46319;DHT22;32042;50.916;2.926;2022-12-01T20:18:37;2.40;99.90
46319;DHT22;32042;50.916;2.926;2022-12-01T20:23:34;2.50;99.90
46319;DHT22;32042;50.916;2.926;2022-12-01T20:26:05;2.50;99.90
46319;DHT22;32042;50.916;2.926;2022-12-01T20:28:32;2.40;99.90
46319;DHT22;32042;50.916;2.926;2022-12-01T20:30:58;2.40;99.90
46319;DHT22;32042;50.916;2.926;2022-12-01T20:33:24;2.40;99.90
46319;DHT22;32042;50.916;2.926;2022-12-01T20:35:50;2.40;99.90
46319;DHT22;32042;50.916;2.926;2022-12-01T20:38:17;2.40;99.90
46319;DHT22;32042;50.916;2.926;2022-12-01T20:40:42;2.40;99.90
46319;DHT22;32042;50.916;2.926;2022-12-01T20:43:08;2.40;99.90
46319;DHT22;32042;50.916;2.926;2022-12-01T20:45:34;2.30;99.90
46319;DHT22;32042;50.916;2.926;2022-12-01T20:47:59;2.30;99.90
46319;DHT22;32042;50.916;2.926;2022-12-01T20:50:25;2.30;99.90
46319;DHT22;32042;50.916;2.926;2022-12-01T20:52:51;2.30;99.90
46319;DHT22;32042;50.916;2.926;2022-12-01T20:55:16;2.30;99.90
46319;DHT22;32042;50.916;2.926;2022-12-01T20:57:42;2.30;99.90
46319;DHT22;32042;50.916;2.926;2022-12-01T21:00:08;2.30;99.90
46319;DHT22;32042;50.916;2.926;2022-12-01T21:02:37;2.20;99.90
46319;DHT22;32042;50.916;2.926;2022-12-01T21:05:03;2.20;99.90
46319;DHT22;32042;50.916;2.926;2022-12-01T21:07:30;2.20;99.90
46319;DHT22;32042;50.916;2.926;2022-12-01T21:09:55;2.20;99.90
46319;DHT22;32042;50.916;2.926;2022-12-01T21:12:21;2.20;99.90
46319;DHT22;32042;50.916;2.926;2022-12-01T21:15:42;2.20;99.90
46319;DHT22;32042;50.916;2.926;2022-12-01T21:18:24;2.20;99.90
46319;DHT22;32042;50.916;2.926;2022-12-01T21:20:59;2.20;99.90
46319;DHT22;32042;50.916;2.926;2022-12-01T21:23:26;2.10;99.90
46319;DHT22;32042;50.916;2.926;2022-12-01T21:25:52;2.10;99.90
46319;DHT22;32042;50.916;2.926;2022-12-01T21:28:22;2.10;99.90
46319;DHT22;32042;50.916;2.926;2022-12-01T21:30:52;2.10;99.90
46319;DHT22;32042;50.916;2.926;2022-12-01T21:35:49;2.10;99.90
46319;DHT22;32042;50.916;2.926;2022-12-01T21:38:15;2.00;99.90
46319;DHT22;32042;50.916;2.926;2022-12-01T21:40:41;2.00;99.90
46319;DHT22;32042;50.916;2.926;2022-12-01T21:43:19;2.00;99.90
46319;DHT22;32042;50.916;2.926;2022-12-01T21:45:49;2.00;99.90
46319;DHT22;32042;50.916;2.926;2022-12-01T21:48:17;2.00;99.90
46319;DHT22;32042;50.916;2.926;2022-12-01T21:50:44;1.90;99.90
46319;DHT22;32042;50.916;2.926;2022-12-01T21:53:12;1.90;99.90
46319;DHT22;32042;50.916;2.926;2022-12-01T21:55:40;1.90;99.90
46319;DHT22;32042;50.916;2.926;2022-12-01T21:58:27;1.80;99.90
46319;DHT22;32042;50.916;2.926;2022-12-01T22:00:56;1.80;99.90
46319;DHT22;32042;50.916;2.926;2022-12-01T22:03:35;1.70;99.90
46319;DHT22;32042;50.916;2.926;2022-12-01T22:06:26;1.70;99.90
46319;DHT22;32042;50.916;2.926;2022-12-01T22:08:58;1.70;99.90
46319;DHT22;32042;50.916;2.926;2022-12-01T22:11:26;1.60;99.90
46319;DHT22;32042;50.916;2.926;2022-12-01T22:16:38;1.50;99.90
46319;DHT22;32042;50.916;2.926;2022-12-01T22:21:47;1.50;99.90
46319;DHT22;32042;50.916;2.926;2022-12-01T22:27:36;1.40;99.90
46319;DHT22;32042;50.916;2.926;2022-12-01T22:35:23;1.30;99.90
46319;DHT22;32042;50.916;2.926;2022-12-01T22:40:39;1.20;99.90
46319;DHT22;32042;50.916;2.926;2022-12-01T22:45:48;1.30;99.90
46319;DHT22;32042;50.916;2.926;2022-12-01T22:50:52;1.40;99.90
46319;DHT22;32042;50.916;2.926;2022-12-01T22:53:22;1.50;99.90
46319;DHT22;32042;50.916;2.926;2022-12-01T22:55:49;1.50;99.90
46319;DHT22;32042;50.916;2.926;2022-12-01T22:58:23;1.60;99.90
46319;DHT22;32042;50.916;2.926;2022-12-01T23:00:51;1.70;99.90
46319;DHT22;32042;50.916;2.926;2022-12-01T23:03:18;1.70;99.90
46319;DHT22;32042;50.916;2.926;2022-12-01T23:05:43;1.70;99.90
46319;DHT22;32042;50.916;2.926;2022-12-01T23:08:14;1.80;99.90
46319;DHT22;32042;50.916;2.926;2022-12-01T23:10:40;1.80;99.90
46319;DHT22;32042;50.916;2.926;2022-12-01T23:15:43;1.70;99.90
46319;DHT22;32042;50.916;2.926;2022-12-01T23:21:02;1.70;99.90
46319;DHT22;32042;50.916;2.926;2022-12-01T23:23:30;1.80;99.90
46319;DHT22;32042;50.916;2.926;2022-12-01T23:25:57;1.80;99.90
46319;DHT22;32042;50.916;2.926;2022-12-01T23:28:23;1.80;99.90
46319;DHT22;32042;50.916;2.926;2022-12-01T23:30:53;1.90;99.90
46319;DHT22;32042;50.916;2.926;2022-12-01T23:33:24;1.80;99.90
46319;DHT22;32042;50.916;2.926;2022-12-01T23:36:05;1.80;99.90
46319;DHT22;32042;50.916;2.926;2022-12-01T23:38:41;1.80;99.90
46319;DHT22;32042;50.916;2.926;2022-12-01T23:43:48;1.90;99.90
46319;DHT22;32042;50.916;2.926;2022-12-01T23:46:15;1.90;99.90
46319;DHT22;32042;50.916;2.926;2022-12-01T23:49:03;1.90;99.90
46319;DHT22;32042;50.916;2.926;2022-12-01T23:54:00;2.00;99.90
46319;DHT22;32042;50.916;2.926;2022-12-01T23:56:29;2.00;99.90
46319;DHT22;32042;50.916;2.926;2022-12-01T23:58:56;2.00;99.90
